BAW2231 EGKK-VTBS
Flight info
| Callsign | BAW2231 |
|---|---|
| Flight time | N/A |
| Altitude | 35000 |
| Route | ODVIK Y311 DVR UL9 KONAN UL607 FERDI DCT REMBA DCT LIRSU DCT BANUX DCT BABEG DCT KONIN DCT ERKIR DCT KFT DCT PODET DCT ZINPE DCT ETIDA DCT EKSOL DCT UDROS UM859 EVKAM/N0476F370 UM859 KARDE UN644 ROLIN DCT FOQUS DCT LAGAS DCT DISKA M737 VERCA M747 BODKA P130 MAMED B449 RANAH L750 RIKAD/N0479F390 L750 MERUN G452 LKN R460 CEA DCT DOPID P646 IBITA/N0478F410 P646 PTN N895 BETNO G463 TARED DCT WILLA WILLA1C |
| Aircraft | B772/H-SDE1E3FGHIJ3J5J6M1M2P2RWXYZ/LB1D1 |
Departure
| Time | N/A |
|---|---|
| Airport | London Gatwick Airport (EGKK) |
Arrival
| Time | 2026-05-08 08:12 |
|---|---|
| Airport | Suvarnabhumi Airport (VTBS) |
| Time | Latitude | Longitude | Altitude | Speed | Heading |
|---|---|---|---|---|---|
| 2026-05-08 06:50 | 18.35991 | 92.74424 | 40878 ft | 488 kts | 131° |
| 2026-05-08 06:51 | 18.31800 | 92.79981 | 40873 ft | 488 kts | 131° |
| 2026-05-08 06:51 | 18.27577 | 92.85576 | 40875 ft | 488 kts | 131° |
| 2026-05-08 06:52 | 18.23343 | 92.91180 | 40869 ft | 488 kts | 131° |
| 2026-05-08 06:52 | 18.19112 | 92.96775 | 40869 ft | 488 kts | 131° |
| 2026-05-08 06:53 | 18.14880 | 93.02367 | 40868 ft | 488 kts | 131° |
| 2026-05-08 06:53 | 18.10671 | 93.07924 | 40864 ft | 488 kts | 131° |
| 2026-05-08 06:54 | 18.06441 | 93.13503 | 40856 ft | 487 kts | 131° |
| 2026-05-08 06:54 | 18.02218 | 93.19069 | 40866 ft | 486 kts | 131° |
| 2026-05-08 06:55 | 17.98004 | 93.24618 | 40854 ft | 484 kts | 131° |
| 2026-05-08 06:55 | 17.93834 | 93.30105 | 40855 ft | 483 kts | 131° |
| 2026-05-08 06:56 | 17.89635 | 93.35624 | 40860 ft | 482 kts | 131° |
| 2026-05-08 06:56 | 17.85444 | 93.41129 | 40856 ft | 482 kts | 131° |
| 2026-05-08 06:57 | 17.81255 | 93.46626 | 40859 ft | 483 kts | 131° |
| 2026-05-08 06:57 | 17.77079 | 93.52102 | 40856 ft | 483 kts | 131° |
| 2026-05-08 06:58 | 17.72875 | 93.57608 | 40854 ft | 483 kts | 131° |
| 2026-05-08 06:58 | 17.68668 | 93.63113 | 40867 ft | 483 kts | 131° |
| 2026-05-08 06:59 | 17.64468 | 93.68611 | 40849 ft | 483 kts | 131° |
| 2026-05-08 06:59 | 17.60293 | 93.74069 | 40854 ft | 482 kts | 131° |
| 2026-05-08 07:00 | 17.56099 | 93.79544 | 40853 ft | 481 kts | 131° |
| 2026-05-08 07:00 | 17.51907 | 93.85013 | 40850 ft | 481 kts | 131° |
| 2026-05-08 07:01 | 17.47704 | 93.90492 | 40855 ft | 482 kts | 131° |
| 2026-05-08 07:01 | 17.43529 | 93.95930 | 40854 ft | 482 kts | 131° |
| 2026-05-08 07:02 | 17.39319 | 94.01409 | 40849 ft | 483 kts | 131° |
| 2026-05-08 07:02 | 17.35099 | 94.06897 | 40844 ft | 483 kts | 131° |
| 2026-05-08 07:03 | 17.30891 | 94.12366 | 40850 ft | 481 kts | 131° |
| 2026-05-08 07:03 | 17.26696 | 94.17817 | 40843 ft | 480 kts | 131° |
| 2026-05-08 07:04 | 17.22538 | 94.23210 | 40843 ft | 479 kts | 131° |
| 2026-05-08 07:04 | 17.18351 | 94.28635 | 40847 ft | 478 kts | 131° |
| 2026-05-08 07:05 | 17.14171 | 94.34049 | 40847 ft | 478 kts | 131° |
| 2026-05-08 07:05 | 17.09983 | 94.39470 | 40847 ft | 478 kts | 131° |
| 2026-05-08 07:06 | 17.05823 | 94.44849 | 40842 ft | 479 kts | 131° |
| 2026-05-08 07:06 | 17.01631 | 94.50266 | 40840 ft | 479 kts | 131° |
| 2026-05-08 07:07 | 16.97436 | 94.55684 | 40845 ft | 479 kts | 131° |
| 2026-05-08 07:07 | 16.93238 | 94.61101 | 40831 ft | 479 kts | 131° |
| 2026-05-08 07:08 | 16.89073 | 94.66471 | 40832 ft | 478 kts | 131° |
| 2026-05-08 07:08 | 16.84879 | 94.71875 | 40833 ft | 478 kts | 131° |
| 2026-05-08 07:09 | 16.80826 | 94.77381 | 40813 ft | 479 kts | 125° |
| 2026-05-08 07:09 | 16.77641 | 94.83479 | 40822 ft | 480 kts | 118° |
| 2026-05-08 07:10 | 16.74667 | 94.89722 | 40810 ft | 481 kts | 118° |
| 2026-05-08 07:10 | 16.71670 | 94.95967 | 40817 ft | 481 kts | 118° |
| 2026-05-08 07:11 | 16.68672 | 95.02147 | 40809 ft | 480 kts | 118° |
| 2026-05-08 07:11 | 16.65646 | 95.08355 | 40804 ft | 479 kts | 118° |
| 2026-05-08 07:12 | 16.62621 | 95.14553 | 40808 ft | 479 kts | 118° |
| 2026-05-08 07:12 | 16.59601 | 95.20738 | 40806 ft | 478 kts | 118° |
| 2026-05-08 07:13 | 16.56587 | 95.26907 | 40805 ft | 477 kts | 118° |
| 2026-05-08 07:13 | 16.53569 | 95.33077 | 40811 ft | 477 kts | 118° |
| 2026-05-08 07:14 | 16.50576 | 95.39191 | 40818 ft | 476 kts | 118° |
| 2026-05-08 07:14 | 16.47563 | 95.45342 | 40816 ft | 476 kts | 118° |
| 2026-05-08 07:15 | 16.44550 | 95.51485 | 40821 ft | 476 kts | 118° |
| 2026-05-08 07:15 | 16.41531 | 95.57635 | 40818 ft | 476 kts | 118° |
| 2026-05-08 07:16 | 16.38513 | 95.63778 | 40828 ft | 476 kts | 118° |
| 2026-05-08 07:16 | 16.35509 | 95.69886 | 40828 ft | 476 kts | 118° |
| 2026-05-08 07:17 | 16.32487 | 95.76029 | 40826 ft | 476 kts | 118° |
| 2026-05-08 07:17 | 16.29463 | 95.82168 | 40827 ft | 476 kts | 118° |
| 2026-05-08 07:18 | 16.26439 | 95.88300 | 40847 ft | 475 kts | 118° |
| 2026-05-08 07:18 | 16.23417 | 95.94406 | 40833 ft | 474 kts | 118° |
| 2026-05-08 07:19 | 16.20441 | 96.00458 | 40833 ft | 472 kts | 118° |
| 2026-05-08 07:19 | 16.17441 | 96.06531 | 40836 ft | 471 kts | 118° |
| 2026-05-08 07:20 | 16.14429 | 96.12573 | 40840 ft | 469 kts | 118° |
| 2026-05-08 07:20 | 16.11429 | 96.18609 | 40837 ft | 469 kts | 118° |
| 2026-05-08 07:21 | 16.08470 | 96.24622 | 40839 ft | 470 kts | 117° |
| 2026-05-08 07:21 | 16.05483 | 96.30668 | 40841 ft | 471 kts | 118° |
| 2026-05-08 07:22 | 16.02476 | 96.36722 | 40837 ft | 471 kts | 118° |
| 2026-05-08 07:22 | 15.99460 | 96.42783 | 40841 ft | 472 kts | 118° |
| 2026-05-08 07:23 | 15.96442 | 96.48848 | 40833 ft | 472 kts | 118° |
| 2026-05-08 07:23 | 15.93422 | 96.54915 | 40839 ft | 472 kts | 118° |
| 2026-05-08 07:24 | 15.90422 | 96.60936 | 40839 ft | 472 kts | 118° |
| 2026-05-08 07:24 | 15.87403 | 96.67000 | 40840 ft | 472 kts | 117° |
| 2026-05-08 07:25 | 15.84380 | 96.73050 | 40836 ft | 472 kts | 117° |
| 2026-05-08 07:26 | 15.79845 | 96.82120 | 40836 ft | 471 kts | 117° |
| 2026-05-08 07:26 | 15.76826 | 96.88157 | 40834 ft | 471 kts | 117° |
| 2026-05-08 07:27 | 15.73805 | 96.94194 | 40836 ft | 471 kts | 117° |
| 2026-05-08 07:27 | 15.70806 | 97.00182 | 40835 ft | 471 kts | 117° |
| 2026-05-08 07:28 | 15.67781 | 97.06214 | 40833 ft | 471 kts | 117° |
| 2026-05-08 07:28 | 15.64753 | 97.12248 | 40834 ft | 471 kts | 117° |
| 2026-05-08 07:29 | 15.61725 | 97.18276 | 40837 ft | 471 kts | 117° |
| 2026-05-08 07:29 | 15.58715 | 97.24264 | 40836 ft | 471 kts | 117° |
| 2026-05-08 07:30 | 15.55683 | 97.30291 | 40835 ft | 471 kts | 117° |
| 2026-05-08 07:30 | 15.52650 | 97.36315 | 40839 ft | 471 kts | 117° |
| 2026-05-08 07:31 | 15.49614 | 97.42340 | 40835 ft | 471 kts | 117° |
| 2026-05-08 07:31 | 15.46578 | 97.48359 | 40836 ft | 471 kts | 117° |
| 2026-05-08 07:32 | 15.43565 | 97.54328 | 40839 ft | 471 kts | 117° |
| 2026-05-08 07:32 | 15.40524 | 97.60349 | 40831 ft | 471 kts | 117° |
| 2026-05-08 07:33 | 15.37484 | 97.66361 | 40835 ft | 470 kts | 117° |
| 2026-05-08 07:33 | 15.34451 | 97.72355 | 40834 ft | 469 kts | 117° |
| 2026-05-08 07:34 | 15.31438 | 97.78304 | 40836 ft | 468 kts | 117° |
| 2026-05-08 07:34 | 15.28411 | 97.84277 | 40837 ft | 468 kts | 117° |
| 2026-05-08 07:35 | 15.25384 | 97.90245 | 40833 ft | 468 kts | 117° |
| 2026-05-08 07:35 | 15.22355 | 97.96212 | 40842 ft | 468 kts | 117° |
| 2026-05-08 07:36 | 15.19839 | 98.01168 | 40845 ft | 467 kts | 117° |
| 2026-05-08 07:36 | 15.16812 | 98.07111 | 40851 ft | 466 kts | 117° |
| 2026-05-08 07:37 | 15.13796 | 98.13053 | 40843 ft | 465 kts | 117° |
| 2026-05-08 07:37 | 15.10803 | 98.18929 | 40844 ft | 464 kts | 117° |
| 2026-05-08 07:38 | 15.07807 | 98.24860 | 40858 ft | 464 kts | 116° |
| 2026-05-08 07:38 | 15.04857 | 98.30809 | 40845 ft | 465 kts | 116° |
| 2026-05-08 07:39 | 15.01907 | 98.36766 | 40838 ft | 465 kts | 116° |
| 2026-05-08 07:39 | 14.98959 | 98.42699 | 40866 ft | 466 kts | 117° |
| 2026-05-08 07:40 | 14.95978 | 98.48678 | 40860 ft | 468 kts | 116° |
| 2026-05-08 07:40 | 14.92986 | 98.54687 | 40864 ft | 470 kts | 117° |
| 2026-05-08 07:41 | 14.89986 | 98.60700 | 40860 ft | 471 kts | 117° |
| 2026-05-08 07:41 | 14.86974 | 98.66732 | 40869 ft | 471 kts | 117° |
| 2026-05-08 07:42 | 14.83982 | 98.72718 | 40863 ft | 472 kts | 116° |
| 2026-05-08 07:42 | 14.82469 | 98.75743 | 40529 ft | 477 kts | 116° |
| 2026-05-08 07:42 | 14.80933 | 98.78814 | 39900 ft | 480 kts | 116° |
| 2026-05-08 07:42 | 14.79410 | 98.81869 | 39309 ft | 479 kts | 116° |
| 2026-05-08 07:43 | 14.77875 | 98.84938 | 38677 ft | 479 kts | 116° |
| 2026-05-08 07:43 | 14.76339 | 98.88003 | 37932 ft | 480 kts | 116° |
| 2026-05-08 07:43 | 14.74801 | 98.91057 | 37386 ft | 476 kts | 116° |
| 2026-05-08 07:43 | 14.73286 | 98.94084 | 36884 ft | 472 kts | 116° |
| 2026-05-08 07:44 | 14.71783 | 98.97090 | 36424 ft | 467 kts | 116° |
| 2026-05-08 07:44 | 14.70295 | 99.00060 | 35964 ft | 463 kts | 116° |
| 2026-05-08 07:44 | 14.68822 | 99.02996 | 35511 ft | 460 kts | 116° |
| 2026-05-08 07:44 | 14.67369 | 99.05889 | 35046 ft | 457 kts | 116° |
| 2026-05-08 07:45 | 14.65913 | 99.08787 | 34565 ft | 454 kts | 116° |
| 2026-05-08 07:45 | 14.64460 | 99.11678 | 34080 ft | 452 kts | 116° |
| 2026-05-08 07:45 | 14.63010 | 99.14562 | 33564 ft | 450 kts | 116° |
| 2026-05-08 07:45 | 14.61575 | 99.17416 | 33065 ft | 447 kts | 116° |
| 2026-05-08 07:46 | 14.60144 | 99.20263 | 32572 ft | 444 kts | 116° |
| 2026-05-08 07:46 | 14.58726 | 99.23082 | 32094 ft | 441 kts | 117° |
| 2026-05-08 07:46 | 14.57317 | 99.25882 | 31614 ft | 438 kts | 117° |
| 2026-05-08 07:46 | 14.55917 | 99.28663 | 31134 ft | 435 kts | 117° |
| 2026-05-08 07:47 | 14.54523 | 99.31432 | 30686 ft | 432 kts | 117° |
| 2026-05-08 07:47 | 14.53142 | 99.34174 | 30215 ft | 430 kts | 117° |
| 2026-05-08 07:47 | 14.51764 | 99.36909 | 29720 ft | 428 kts | 117° |
| 2026-05-08 07:47 | 14.50391 | 99.39630 | 29159 ft | 426 kts | 117° |
| 2026-05-08 07:48 | 14.49045 | 99.42309 | 28638 ft | 424 kts | 117° |
| 2026-05-08 07:48 | 14.47688 | 99.44999 | 28140 ft | 421 kts | 117° |
| 2026-05-08 07:48 | 14.46337 | 99.47671 | 27643 ft | 419 kts | 117° |
| 2026-05-08 07:48 | 14.45084 | 99.50374 | 27148 ft | 417 kts | 111° |
| 2026-05-08 07:49 | 14.44206 | 99.53221 | 26663 ft | 415 kts | 104° |
| 2026-05-08 07:49 | 14.43636 | 99.56134 | 26173 ft | 414 kts | 98° |
| 2026-05-08 07:49 | 14.43417 | 99.59090 | 25690 ft | 413 kts | 94° |
| 2026-05-08 07:49 | 14.43270 | 99.62054 | 25198 ft | 412 kts | 94° |
| 2026-05-08 07:50 | 14.43108 | 99.64958 | 24717 ft | 411 kts | 94° |
| 2026-05-08 07:50 | 14.42933 | 99.67905 | 24236 ft | 411 kts | 95° |
| 2026-05-08 07:50 | 14.42749 | 99.70854 | 23748 ft | 411 kts | 95° |
| 2026-05-08 07:50 | 14.42564 | 99.73795 | 23244 ft | 411 kts | 95° |
| 2026-05-08 07:51 | 14.42376 | 99.76734 | 22696 ft | 410 kts | 95° |
| 2026-05-08 07:51 | 14.42188 | 99.79668 | 22202 ft | 408 kts | 95° |
| 2026-05-08 07:51 | 14.42002 | 99.82581 | 21714 ft | 406 kts | 95° |
| 2026-05-08 07:51 | 14.41817 | 99.85479 | 21240 ft | 404 kts | 95° |
| 2026-05-08 07:52 | 14.41636 | 99.88324 | 20775 ft | 402 kts | 95° |
| 2026-05-08 07:52 | 14.41452 | 99.91195 | 20310 ft | 400 kts | 95° |
| 2026-05-08 07:52 | 14.41269 | 99.94055 | 19843 ft | 399 kts | 95° |
| 2026-05-08 07:52 | 14.41086 | 99.96905 | 19362 ft | 398 kts | 95° |
| 2026-05-08 07:53 | 14.40902 | 99.99760 | 18884 ft | 397 kts | 95° |
| 2026-05-08 07:53 | 14.40720 | 100.02597 | 18407 ft | 397 kts | 95° |
| 2026-05-08 07:53 | 14.40535 | 100.05435 | 17944 ft | 395 kts | 95° |
| 2026-05-08 07:53 | 14.40137 | 100.08204 | 17626 ft | 385 kts | 104° |
| 2026-05-08 07:54 | 14.39444 | 100.10800 | 17277 ft | 377 kts | 108° |
| 2026-05-08 07:54 | 14.38701 | 100.13355 | 16991 ft | 369 kts | 107° |
| 2026-05-08 07:54 | 14.38017 | 100.15873 | 16714 ft | 361 kts | 106° |
| 2026-05-08 07:54 | 14.37378 | 100.18356 | 16443 ft | 353 kts | 105° |
| 2026-05-08 07:55 | 14.36769 | 100.20779 | 16190 ft | 346 kts | 105° |
| 2026-05-08 07:55 | 14.36174 | 100.23166 | 15942 ft | 340 kts | 105° |
| 2026-05-08 07:55 | 14.35587 | 100.25521 | 15692 ft | 338 kts | 105° |
| 2026-05-08 07:55 | 14.35002 | 100.27863 | 15444 ft | 336 kts | 105° |
| 2026-05-08 07:56 | 14.34420 | 100.30187 | 15207 ft | 334 kts | 105° |
| 2026-05-08 07:56 | 14.33840 | 100.32503 | 14959 ft | 332 kts | 105° |
| 2026-05-08 07:56 | 14.33261 | 100.34811 | 14712 ft | 331 kts | 105° |
| 2026-05-08 07:56 | 14.32687 | 100.37100 | 14474 ft | 329 kts | 105° |
| 2026-05-08 07:57 | 14.32122 | 100.39352 | 14249 ft | 328 kts | 105° |
| 2026-05-08 07:57 | 14.31552 | 100.41622 | 14011 ft | 327 kts | 105° |
| 2026-05-08 07:57 | 14.30984 | 100.43885 | 13774 ft | 326 kts | 105° |
| 2026-05-08 07:57 | 14.30416 | 100.46145 | 13523 ft | 325 kts | 105° |
| 2026-05-08 07:58 | 14.29849 | 100.48400 | 13263 ft | 324 kts | 105° |
| 2026-05-08 07:58 | 14.29283 | 100.50650 | 13015 ft | 323 kts | 104° |
| 2026-05-08 07:58 | 14.28721 | 100.52886 | 12778 ft | 322 kts | 104° |
| 2026-05-08 07:58 | 14.28162 | 100.55110 | 12538 ft | 320 kts | 104° |
| 2026-05-08 07:59 | 14.27604 | 100.57327 | 12309 ft | 319 kts | 104° |
| 2026-05-08 07:59 | 14.27045 | 100.59534 | 12090 ft | 318 kts | 104° |
| 2026-05-08 07:59 | 14.26496 | 100.61706 | 11852 ft | 315 kts | 106° |
| 2026-05-08 07:59 | 14.25552 | 100.63711 | 11617 ft | 312 kts | 128° |
| 2026-05-08 08:00 | 14.23893 | 100.65140 | 11392 ft | 314 kts | 152° |
| 2026-05-08 08:00 | 14.21819 | 100.65826 | 11161 ft | 315 kts | 171° |
| 2026-05-08 08:00 | 14.19637 | 100.65757 | 10947 ft | 316 kts | 191° |
| 2026-05-08 08:00 | 14.17506 | 100.65199 | 10711 ft | 317 kts | 193° |
| 2026-05-08 08:01 | 14.15361 | 100.64600 | 10467 ft | 321 kts | 193° |
| 2026-05-08 08:01 | 14.13206 | 100.64149 | 10182 ft | 306 kts | 179° |
| 2026-05-08 08:01 | 14.11197 | 100.64532 | 9984 ft | 286 kts | 152° |
| 2026-05-08 08:01 | 14.09644 | 100.65715 | 9668 ft | 273 kts | 127° |
| 2026-05-08 08:02 | 14.08790 | 100.67390 | 8945 ft | 268 kts | 102° |
| 2026-05-08 08:02 | 14.08788 | 100.69285 | 8193 ft | 267 kts | 74° |
| 2026-05-08 08:02 | 14.09516 | 100.71033 | 7500 ft | 265 kts | 62° |
| 2026-05-08 08:02 | 14.10429 | 100.72671 | 6966 ft | 261 kts | 60° |
| 2026-05-08 08:03 | 14.11342 | 100.74244 | 6578 ft | 251 kts | 62° |
| 2026-05-08 08:03 | 14.11832 | 100.75934 | 6238 ft | 247 kts | 90° |
| 2026-05-08 08:03 | 14.11420 | 100.77612 | 6023 ft | 241 kts | 117° |
| 2026-05-08 08:03 | 14.10509 | 100.79048 | 5713 ft | 238 kts | 131° |
| 2026-05-08 08:04 | 14.09146 | 100.80005 | 5401 ft | 238 kts | 157° |
| 2026-05-08 08:04 | 14.07551 | 100.80408 | 5297 ft | 242 kts | 169° |
| 2026-05-08 08:04 | 14.05862 | 100.80652 | 5151 ft | 247 kts | 171° |
| 2026-05-08 08:04 | 14.04155 | 100.80882 | 5064 ft | 247 kts | 171° |
| 2026-05-08 08:05 | 14.02460 | 100.81116 | 4965 ft | 244 kts | 170° |
| 2026-05-08 08:05 | 14.00784 | 100.81369 | 4867 ft | 243 kts | 170° |
| 2026-05-08 08:05 | 13.99112 | 100.81628 | 4765 ft | 242 kts | 169° |
| 2026-05-08 08:05 | 13.97446 | 100.81888 | 4672 ft | 242 kts | 169° |
| 2026-05-08 08:06 | 13.95777 | 100.82152 | 4577 ft | 243 kts | 169° |
| 2026-05-08 08:06 | 13.94109 | 100.82413 | 4462 ft | 241 kts | 171° |
| 2026-05-08 08:06 | 13.92477 | 100.82327 | 4350 ft | 243 kts | 194° |
| 2026-05-08 08:06 | 13.90831 | 100.81822 | 4282 ft | 248 kts | 194° |
| 2026-05-08 08:07 | 13.89204 | 100.81372 | 4152 ft | 237 kts | 193° |
| 2026-05-08 08:07 | 13.87641 | 100.80958 | 4062 ft | 226 kts | 192° |
| 2026-05-08 08:07 | 13.86169 | 100.80574 | 3876 ft | 213 kts | 192° |
| 2026-05-08 08:07 | 13.84746 | 100.80205 | 3503 ft | 210 kts | 193° |
| 2026-05-08 08:08 | 13.83342 | 100.79833 | 3096 ft | 207 kts | 193° |
| 2026-05-08 08:08 | 13.81965 | 100.79471 | 2600 ft | 200 kts | 193° |
| 2026-05-08 08:08 | 13.80644 | 100.79123 | 2114 ft | 191 kts | 193° |
| 2026-05-08 08:08 | 13.79416 | 100.78796 | 1791 ft | 172 kts | 194° |
| 2026-05-08 08:09 | 13.78320 | 100.78504 | 1554 ft | 159 kts | 194° |
| 2026-05-08 08:09 | 13.77284 | 100.78217 | 1364 ft | 153 kts | 194° |
| 2026-05-08 08:09 | 13.76288 | 100.77945 | 1256 ft | 146 kts | 193° |
| 2026-05-08 08:09 | 13.75307 | 100.77694 | 1285 ft | 145 kts | 192° |
| 2026-05-08 08:10 | 13.74307 | 100.77449 | 1178 ft | 151 kts | 192° |
| 2026-05-08 08:10 | 13.73295 | 100.77194 | 874 ft | 146 kts | 193° |
| 2026-05-08 08:10 | 13.72327 | 100.76914 | 655 ft | 143 kts | 193° |
| 2026-05-08 08:10 | 13.71384 | 100.76689 | 483 ft | 138 kts | 192° |
| 2026-05-08 08:11 | 13.70444 | 100.76442 | 319 ft | 139 kts | 195° |
| 2026-05-08 08:11 | 13.69526 | 100.76196 | 142 ft | 135 kts | 194° |
| 2026-05-08 08:11 | 13.68629 | 100.75961 | 25 ft | 130 kts | 192° |
| 2026-05-08 08:11 | 13.67884 | 100.75767 | 15 ft | 85 kts | 194° |
| 2026-05-08 08:12 | 13.67474 | 100.75656 | 17 ft | 38 kts | 194° |
| 2026-05-08 08:12 | 13.67288 | 100.75598 | 18 ft | 24 kts | 204° |
| 2026-05-08 08:12 | 13.67162 | 100.75515 | 17 ft | 17 kts | 219° |
| 2026-05-08 08:12 | 13.67096 | 100.75449 | 17 ft | 9 kts | 234° |
| 2026-05-08 08:13 | 13.67092 | 100.75400 | 17 ft | 6 kts | 296° |
| 2026-05-08 08:13 | 13.67150 | 100.75383 | 17 ft | 13 kts | 11° |
| 2026-05-08 08:13 | 13.67282 | 100.75415 | 17 ft | 26 kts | 14° |
| 2026-05-08 08:13 | 13.67464 | 100.75465 | 17 ft | 20 kts | 15° |
| 2026-05-08 08:14 | 13.67573 | 100.75493 | 17 ft | 14 kts | 14° |
| 2026-05-08 08:14 | 13.67661 | 100.75516 | 17 ft | 13 kts | 14° |
| 2026-05-08 08:14 | 13.67729 | 100.75530 | 17 ft | 8 kts | 358° |
| 2026-05-08 08:14 | 13.67765 | 100.75492 | 17 ft | 9 kts | 288° |
| 2026-05-08 08:15 | 13.67813 | 100.75454 | 17 ft | 9 kts | 356° |
| 2026-05-08 08:15 | 13.67873 | 100.75445 | 17 ft | 8 kts | 316° |
| 2026-05-08 08:15 | 13.67890 | 100.75394 | 17 ft | 8 kts | 285° |
| 2026-05-08 08:15 | 13.67910 | 100.75317 | 17 ft | 14 kts | 285° |
| 2026-05-08 08:16 | 13.67938 | 100.75207 | 17 ft | 18 kts | 284° |
| 2026-05-08 08:16 | 13.67958 | 100.75123 | 18 ft | 7 kts | 282° |
| 2026-05-08 08:16 | 13.67968 | 100.75090 | 18 ft | 5 kts | 299° |
| 2026-05-08 08:16 | 13.68013 | 100.75088 | 17 ft | 7 kts | 14° |
| 2026-05-08 08:17 | 13.68046 | 100.75097 | 18 ft | 3 kts | 15° |
| 2026-05-08 08:17 | 13.68057 | 100.75100 | 17 ft | 3 kts | 15° |
| 2026-05-08 08:17 | 13.68063 | 100.75101 | 18 ft | 0 kts | 14° |